createdAt,value
2018-05-29T00:00:44.504Z,21.18
2018-05-29T00:01:44.590Z,21.11
2018-05-29T00:02:43.995Z,21.15
2018-05-29T00:03:44.515Z,21.15
2018-05-29T00:04:44.260Z,21.07
2018-05-29T00:05:44.515Z,21.12
2018-05-29T00:06:44.303Z,21.14
2018-05-29T00:07:44.261Z,21.14
2018-05-29T00:08:44.012Z,21.11
2018-05-29T00:09:44.258Z,21.07
2018-05-29T00:10:44.536Z,21.03
2018-05-29T00:11:44.271Z,21.03
2018-05-29T00:12:44.530Z,21.07
2018-05-29T00:13:44.546Z,21.02
2018-05-29T00:14:44.017Z,21.05
2018-05-29T00:15:44.072Z,21.14
2018-05-29T00:16:44.289Z,21.11
2018-05-29T00:17:44.534Z,21.09
2018-05-29T00:18:44.288Z,21.17
2018-05-29T00:19:44.049Z,21.09
2018-05-29T00:20:44.294Z,21.07
2018-05-29T00:21:44.552Z,21.11
2018-05-29T00:22:44.290Z,21.06
2018-05-29T00:23:44.573Z,21.11
2018-05-29T00:24:44.577Z,21.03
2018-05-29T00:25:44.313Z,21
2018-05-29T00:26:44.312Z,21.02
2018-05-29T00:27:44.310Z,20.97
2018-05-29T00:28:44.319Z,21
2018-05-29T00:29:44.312Z,20.95
2018-05-29T00:30:44.572Z,20.99
2018-05-29T00:31:44.317Z,20.97
2018-05-29T00:32:44.318Z,20.93
2018-05-29T00:33:44.057Z,20.96
2018-05-29T00:34:44.604Z,20.87
2018-05-29T00:35:44.061Z,20.85
2018-05-29T00:36:44.362Z,20.95
2018-05-29T00:37:44.600Z,20.92
2018-05-29T00:38:44.332Z,20.87
2018-05-29T00:39:44.068Z,20.7
2018-05-29T00:40:44.594Z,20.7
2018-05-29T00:41:44.347Z,20.7
2018-05-29T00:42:44.595Z,20.74
2018-05-29T00:43:44.609Z,20.75
2018-05-29T00:44:44.614Z,20.75
2018-05-29T00:45:44.610Z,20.67
2018-05-29T00:46:44.616Z,20.66
2018-05-29T00:47:44.357Z,20.62
2018-05-29T00:48:44.088Z,20.55
2018-05-29T00:49:44.611Z,20.56
2018-05-29T00:50:44.625Z,20.55
2018-05-29T00:51:44.376Z,20.5
2018-05-29T00:52:44.368Z,20.56
2018-05-29T00:53:44.644Z,20.48
2018-05-29T00:54:44.367Z,20.44
2018-05-29T00:55:44.108Z,20.55
2018-05-29T00:56:44.374Z,20.47
2018-05-29T00:57:44.382Z,20.34
2018-05-29T00:58:44.384Z,20.4
2018-05-29T00:59:44.149Z,20.37
2018-05-29T01:00:44.385Z,20.36
2018-05-29T01:01:44.631Z,20.36
2018-05-29T01:02:44.644Z,20.34
2018-05-29T01:03:44.384Z,20.39
2018-05-29T01:04:44.654Z,20.32
2018-05-29T01:05:44.407Z,20.36
2018-05-29T01:06:44.651Z,20.32
2018-05-29T01:07:44.394Z,20.36
2018-05-29T01:08:44.134Z,20.39
2018-05-29T01:09:44.397Z,20.37
2018-05-29T01:10:44.409Z,20.34
2018-05-29T01:11:44.416Z,20.34
2018-05-29T01:12:44.800Z,20.37
2018-05-29T01:13:44.401Z,20.32
2018-05-29T01:14:44.146Z,20.32
2018-05-29T01:15:44.149Z,20.39
2018-05-29T01:16:44.413Z,20.28
2018-05-29T01:17:44.409Z,20.36
2018-05-29T01:18:44.418Z,20.26
2018-05-29T01:19:44.417Z,20.32
2018-05-29T01:20:44.745Z,20.32
2018-05-29T01:21:44.414Z,20.31
2018-05-29T01:22:44.679Z,20.25
2018-05-29T01:23:44.699Z,20.31
2018-05-29T01:24:44.169Z,20.28
2018-05-29T01:25:44.697Z,20.24
2018-05-29T01:26:44.694Z,20.18
2018-05-29T01:27:44.171Z,20.31
2018-05-29T01:28:44.436Z,20.28
2018-05-29T01:29:44.449Z,20.22
2018-05-29T01:30:44.691Z,20.21
2018-05-29T01:31:44.445Z,20.26
2018-05-29T01:32:44.710Z,20.25
2018-05-29T01:33:44.710Z,20.29
2018-05-29T01:34:44.466Z,20.22
2018-05-29T01:35:45.255Z,20.24
2018-05-29T01:36:44.499Z,20.26
2018-05-29T01:37:44.472Z,20.31
2018-05-29T01:38:44.200Z,20.25
2018-05-29T01:39:44.200Z,20.24
2018-05-29T01:40:44.719Z,20.21
2018-05-29T01:41:44.464Z,20.14
2018-05-29T01:42:44.512Z,20.22
2018-05-29T01:43:45.138Z,20.07
2018-05-29T01:44:44.469Z,20.13
2018-05-29T01:45:44.474Z,20.02
2018-05-29T01:46:44.732Z,20.07
2018-05-29T01:47:44.744Z,20.06
2018-05-29T01:48:44.756Z,20.06
2018-05-29T01:49:44.480Z,20.06
2018-05-29T01:50:44.494Z,19.99
2018-05-29T01:51:44.480Z,20.03
2018-05-29T01:52:44.752Z,20.07
2018-05-29T01:53:44.233Z,20.13
2018-05-29T01:54:44.745Z,20.16
2018-05-29T01:55:44.591Z,20.26
2018-05-29T01:56:44.494Z,20.29
2018-05-29T01:57:44.228Z,20.24
2018-05-29T01:58:44.492Z,20.28
2018-05-29T01:59:44.804Z,20.39
2018-05-29T02:00:44.825Z,20.31
2018-05-29T02:01:44.503Z,20.41
2018-05-29T02:02:44.768Z,20.39
2018-05-29T02:03:44.772Z,20.34
2018-05-29T02:04:44.769Z,20.32
2018-05-29T02:05:44.243Z,20.29
2018-05-29T02:06:44.509Z,20.39
2018-05-29T02:07:44.505Z,20.39
2018-05-29T02:08:44.508Z,20.36
2018-05-29T02:09:44.517Z,20.34
2018-05-29T02:10:44.270Z,20.5
2018-05-29T02:11:44.790Z,20.55
2018-05-29T02:12:44.532Z,20.5
2018-05-29T02:13:44.793Z,20.55
2018-05-29T02:14:44.522Z,20.55
2018-05-29T02:15:44.782Z,20.55
2018-05-29T02:16:44.524Z,20.5
2018-05-29T02:17:44.524Z,20.52
2018-05-29T02:18:44.528Z,20.47
2018-05-29T02:19:44.538Z,20.41
2018-05-29T02:20:44.797Z,20.41
2018-05-29T02:21:44.542Z,20.36
2018-05-29T02:22:44.805Z,20.32
2018-05-29T02:23:44.808Z,20.36
2018-05-29T02:24:44.824Z,20.29
2018-05-29T02:25:44.801Z,20.31
2018-05-29T02:26:44.818Z,20.37
2018-05-29T02:27:44.812Z,20.37
2018-05-29T02:28:44.820Z,20.36
2018-05-29T02:29:44.813Z,20.36
2018-05-29T02:30:44.558Z,20.47
2018-05-29T02:31:44.829Z,20.4
2018-05-29T02:32:44.860Z,20.29
2018-05-29T02:33:44.833Z,20.36
2018-05-29T02:34:44.571Z,20.36
2018-05-29T02:35:44.822Z,20.36
2018-05-29T02:36:44.297Z,20.25
2018-05-29T02:37:44.829Z,20.28
2018-05-29T02:38:44.827Z,20.22
2018-05-29T02:39:44.560Z,20.26
2018-05-29T02:40:44.829Z,20.32
2018-05-29T02:41:44.846Z,20.37
2018-05-29T02:42:44.579Z,20.31
2018-05-29T02:43:44.663Z,20.39
2018-05-29T02:44:44.570Z,20.28
2018-05-29T02:45:44.845Z,20.26
2018-05-29T02:46:44.860Z,20.26
2018-05-29T02:47:44.579Z,20.4
2018-05-29T02:48:44.865Z,20.29
2018-05-29T02:49:44.585Z,20.29
2018-05-29T02:50:44.591Z,20.29
2018-05-29T02:51:44.846Z,20.34
2018-05-29T02:52:44.868Z,20.39
2018-05-29T02:53:44.849Z,20.43
2018-05-29T02:54:44.599Z,20.37
2018-05-29T02:55:44.590Z,20.34
2018-05-29T02:56:44.856Z,20.37
2018-05-29T02:57:44.868Z,20.32
2018-05-29T02:58:44.871Z,20.29
2018-05-29T02:59:44.865Z,20.31
2018-05-29T03:00:44.596Z,20.26
2018-05-29T03:01:44.598Z,20.34
2018-05-29T03:02:44.609Z,20.34
2018-05-29T03:03:44.866Z,20.34
2018-05-29T03:04:44.605Z,20.34
2018-05-29T03:05:44.348Z,20.31
2018-05-29T03:06:44.610Z,20.21
2018-05-29T03:07:44.643Z,20.25
2018-05-29T03:08:44.609Z,20.21
2018-05-29T03:09:44.893Z,20.11
2018-05-29T03:10:44.906Z,20.26
2018-05-29T03:11:44.627Z,20.19
2018-05-29T03:12:44.890Z,20.21
2018-05-29T03:13:44.630Z,20.19
2018-05-29T03:14:44.630Z,20.19
2018-05-29T03:15:44.634Z,20.18
2018-05-29T03:16:44.921Z,20.13
2018-05-29T03:17:44.903Z,20.16
2018-05-29T03:18:44.376Z,20.04
2018-05-29T03:19:44.382Z,20.06
2018-05-29T03:20:44.676Z,20.06
2018-05-29T03:21:44.642Z,20.06
2018-05-29T03:22:44.907Z,20.07
2018-05-29T03:23:44.387Z,20.07
2018-05-29T03:24:44.645Z,20.06
2018-05-29T03:25:44.647Z,20.07
2018-05-29T03:26:44.909Z,20.04
2018-05-29T03:27:44.911Z,20.02
2018-05-29T03:28:44.925Z,19.99
2018-05-29T03:29:44.402Z,20.06
2018-05-29T03:30:44.915Z,20.07
2018-05-29T03:31:45.081Z,20.13
2018-05-29T03:32:44.656Z,20.06
2018-05-29T03:33:44.659Z,20.18
2018-05-29T03:34:44.673Z,20.22
2018-05-29T03:35:44.923Z,20.22
2018-05-29T03:36:44.666Z,20.19
2018-05-29T03:37:44.924Z,20.14
2018-05-29T03:38:44.924Z,20.19
2018-05-29T03:39:44.928Z,20.1
2018-05-29T03:40:44.931Z,20.14
2018-05-29T03:41:44.930Z,20.16
2018-05-29T03:42:44.424Z,20.14
2018-05-29T03:43:45.296Z,20.22
2018-05-29T03:44:44.692Z,20.29
2018-05-29T03:45:44.671Z,20.31
2018-05-29T03:46:44.938Z,20.31
2018-05-29T03:47:44.938Z,20.28
2018-05-29T03:48:44.685Z,20.26
2018-05-29T03:49:44.944Z,20.31
2018-05-29T03:50:44.709Z,20.39
2018-05-29T03:51:44.975Z,20.37
2018-05-29T03:52:44.955Z,20.36
2018-05-29T03:53:44.710Z,20.37
2018-05-29T03:54:44.957Z,20.37
2018-05-29T03:55:44.719Z,20.41
2018-05-29T03:56:44.968Z,20.43
2018-05-29T03:57:44.962Z,20.52
2018-05-29T03:58:44.980Z,20.6
2018-05-29T03:59:44.986Z,20.6
2018-05-29T04:00:44.986Z,20.69
2018-05-29T04:01:44.765Z,20.77
2018-05-29T04:02:44.459Z,20.82
2018-05-29T04:03:44.991Z,20.93
2018-05-29T04:04:44.992Z,21.05
2018-05-29T04:05:44.718Z,21.11
2018-05-29T04:06:44.982Z,21.14
2018-05-29T04:07:44.987Z,21.22
2018-05-29T04:08:45.001Z,21.32
2018-05-29T04:09:44.759Z,21.46
2018-05-29T04:10:45.024Z,21.46
2018-05-29T04:11:45.008Z,21.62
2018-05-29T04:12:45.000Z,21.62
2018-05-29T04:13:44.743Z,21.73
2018-05-29T04:14:45.007Z,21.89
2018-05-29T04:15:45.105Z,21.96
2018-05-29T04:16:44.756Z,22.18
2018-05-29T04:17:44.766Z,22.3
2018-05-29T04:18:45.028Z,22.54
2018-05-29T04:19:45.022Z,22.63
2018-05-29T04:20:44.785Z,22.81
2018-05-29T04:21:44.772Z,23
2018-05-29T04:22:45.032Z,23.13
2018-05-29T04:23:44.787Z,23.31
2018-05-29T04:24:45.042Z,23.46
2018-05-29T04:25:44.780Z,23.51
2018-05-29T04:26:44.789Z,23.47
2018-05-29T04:27:44.792Z,23.36
2018-05-29T04:28:44.798Z,23.32
2018-05-29T04:29:45.067Z,23.2
2018-05-29T04:30:45.067Z,22.99
2018-05-29T04:31:44.564Z,22.72
2018-05-29T04:32:44.851Z,22.54
2018-05-29T04:33:45.079Z,22.29
2018-05-29T04:34:45.083Z,22.25
2018-05-29T04:35:45.099Z,22.18
2018-05-29T04:36:45.086Z,22.08
2018-05-29T04:37:45.079Z,22.08
2018-05-29T04:38:45.099Z,22.08
2018-05-29T04:39:45.105Z,22.06
2018-05-29T04:40:44.847Z,21.98
2018-05-29T04:41:45.109Z,21.92
2018-05-29T04:42:45.104Z,21.99
2018-05-29T04:43:45.279Z,21.96
2018-05-29T04:44:44.583Z,21.93
2018-05-29T04:45:44.875Z,21.83
2018-05-29T04:46:44.878Z,21.89
2018-05-29T04:47:44.872Z,21.79
2018-05-29T04:48:44.870Z,21.73
2018-05-29T04:49:44.963Z,21.77
2018-05-29T04:50:45.147Z,21.73
2018-05-29T04:51:44.879Z,21.7
2018-05-29T04:52:44.883Z,21.72
2018-05-29T04:53:45.179Z,21.72
2018-05-29T04:54:45.153Z,21.8
2018-05-29T04:55:45.149Z,21.72
2018-05-29T04:56:45.244Z,21.67
2018-05-29T04:57:44.890Z,21.77
2018-05-29T04:58:44.906Z,21.75
2018-05-29T04:59:45.186Z,21.92
2018-05-29T05:00:44.655Z,21.89
2018-05-29T05:01:44.964Z,21.92
2018-05-29T05:02:45.181Z,22.1
2018-05-29T05:03:44.963Z,22.13
2018-05-29T05:04:44.918Z,22.26
2018-05-29T05:05:44.929Z,22.33
2018-05-29T05:06:45.188Z,22.33
2018-05-29T05:07:44.936Z,22.29
2018-05-29T05:08:44.686Z,22.3
2018-05-29T05:09:45.196Z,22.28
2018-05-29T05:10:45.208Z,22.3
2018-05-29T05:11:44.951Z,22.28
2018-05-29T05:12:45.243Z,22.26
2018-05-29T05:13:44.958Z,22.26
2018-05-29T05:14:44.950Z,22.23
2018-05-29T05:15:44.961Z,22.22
2018-05-29T05:16:44.972Z,22.33
2018-05-29T05:17:44.962Z,22.28
2018-05-29T05:18:45.230Z,22.28
2018-05-29T05:19:45.011Z,22.3
2018-05-29T05:20:45.243Z,22.48
2018-05-29T05:21:44.723Z,22.57
2018-05-29T05:22:44.719Z,22.55
2018-05-29T05:23:45.060Z,22.66
2018-05-29T05:24:45.245Z,22.75
2018-05-29T05:25:44.997Z,22.84
2018-05-29T05:26:45.032Z,22.84
2018-05-29T05:27:45.257Z,22.87
2018-05-29T05:28:45.000Z,22.85
2018-05-29T05:29:45.002Z,22.9
2018-05-29T05:30:44.753Z,22.9
2018-05-29T05:31:46.230Z,22.87
2018-05-29T05:32:44.762Z,22.88
2018-05-29T05:33:45.287Z,22.84
2018-05-29T05:34:44.760Z,22.81
2018-05-29T05:35:45.033Z,22.85
2018-05-29T05:36:44.775Z,22.85
2018-05-29T05:37:44.777Z,22.8
2018-05-29T05:38:45.039Z,22.66
2018-05-29T05:39:45.301Z,22.47
2018-05-29T05:40:45.084Z,22.29
2018-05-29T05:41:45.059Z,22.22
2018-05-29T05:42:45.070Z,22.25
2018-05-29T05:43:44.801Z,22.18
2018-05-29T05:44:45.071Z,22.26
2018-05-29T05:45:44.815Z,22.35
2018-05-29T05:46:45.382Z,22.28
2018-05-29T05:47:45.073Z,22.3
2018-05-29T05:48:45.336Z,22.32
2018-05-29T05:49:45.080Z,22.29
2018-05-29T05:50:45.082Z,22.45
2018-05-29T05:51:45.106Z,22.54
2018-05-29T05:52:45.199Z,22.66
2018-05-29T05:53:45.379Z,22.7
2018-05-29T05:54:45.096Z,22.8
2018-05-29T05:55:45.363Z,22.99
2018-05-29T05:56:45.108Z,23.13
2018-05-29T05:57:45.382Z,23.46
2018-05-29T05:58:45.375Z,23.65
2018-05-29T05:59:45.120Z,23.69
2018-05-29T06:00:45.118Z,23.99
2018-05-29T06:01:48.893Z,24.36
2018-05-29T06:02:45.134Z,24.42
2018-05-29T06:03:45.409Z,24.68
2018-05-29T06:04:45.409Z,25.18
2018-05-29T06:05:45.153Z,25.65
2018-05-29T06:06:44.894Z,26.18
2018-05-29T06:07:45.174Z,26.55
2018-05-29T06:08:45.154Z,26.95
2018-05-29T06:09:45.434Z,27.42
2018-05-29T06:10:44.909Z,27.63
2018-05-29T06:11:44.919Z,27.98
2018-05-29T06:12:45.444Z,28.3
2018-05-29T06:23:19.069Z,29.78
2018-05-29T06:24:18.830Z,29.88
2018-05-29T06:25:18.818Z,30.16
2018-05-29T06:26:19.064Z,30
2018-05-29T06:27:19.077Z,29.82
2018-05-29T06:28:18.568Z,29.78
2018-05-29T06:29:18.824Z,29.81
2018-05-29T06:30:19.091Z,29.78
2018-05-29T06:31:19.097Z,29.82
2018-05-29T06:32:19.108Z,29.63
2018-05-29T06:33:19.129Z,29.47
2018-05-29T06:34:18.868Z,29.53
2018-05-29T06:35:18.865Z,29.88
2018-05-29T06:36:18.878Z,30.09
2018-05-29T06:37:19.155Z,29.93
2018-05-29T06:38:18.952Z,29.76
2018-05-29T06:39:18.915Z,29.53
2018-05-29T06:40:19.190Z,29.26
2018-05-29T06:41:18.910Z,29.41
2018-05-29T06:42:18.916Z,29.47
2018-05-29T06:43:18.940Z,29.75
2018-05-29T06:44:19.197Z,29.84
2018-05-29T06:45:18.970Z,29.9
2018-05-29T06:46:18.978Z,30.02
2018-05-29T06:47:18.988Z,30.25
2018-05-29T06:48:18.990Z,30.44
2018-05-29T06:49:19.238Z,30.18
2018-05-29T06:50:19.251Z,30.12
2018-05-29T06:51:19.260Z,29.94
2018-05-29T06:52:19.019Z,29.88
2018-05-29T06:53:18.764Z,29.81
2018-05-29T06:54:19.285Z,29.84
2018-05-29T06:55:18.774Z,29.78
2018-05-29T06:56:19.304Z,29.73
2018-05-29T06:57:19.303Z,29.98
2018-05-29T06:58:19.322Z,30.18
2018-05-29T06:59:19.323Z,30.44
2018-05-29T07:00:18.819Z,30.62
2018-05-29T07:01:19.349Z,30.63
2018-05-29T07:02:19.085Z,30.51
2018-05-29T07:03:19.125Z,30.44
2018-05-29T07:04:19.100Z,30.37
2018-05-29T07:05:19.119Z,30.37
2018-05-29T07:06:18.873Z,30.28
2018-05-29T07:07:19.381Z,30.18
2018-05-29T07:08:19.455Z,30.21
2018-05-29T07:09:19.400Z,30.09
2018-05-29T07:10:19.143Z,29.94
2018-05-29T07:11:19.158Z,30.08
2018-05-29T07:12:19.181Z,30.12
2018-05-29T07:13:19.438Z,30.16
2018-05-29T07:14:18.913Z,30.12
2018-05-29T07:15:19.447Z,30.12
2018-05-29T07:16:19.461Z,30.12
2018-05-29T07:17:19.205Z,30.13
2018-05-29T07:18:19.488Z,29.84
2018-05-29T07:19:19.486Z,29.71
2018-05-29T07:20:18.961Z,29.57
2018-05-29T07:21:19.230Z,29.38
2018-05-29T07:22:19.238Z,29.26
2018-05-29T07:23:19.258Z,29.12
2018-05-29T07:24:19.262Z,29.13
2018-05-29T07:25:19.268Z,29.14
2018-05-29T07:26:19.011Z,29.16
2018-05-29T07:27:19.635Z,28.98
2018-05-29T07:28:19.285Z,28.45
2018-05-29T07:29:19.301Z,28.2
2018-05-29T07:30:19.299Z,28.07
2018-05-29T07:31:19.374Z,27.86
2018-05-29T07:32:19.301Z,27.74
2018-05-29T07:33:19.577Z,27.7
2018-05-29T07:34:19.314Z,27.6
2018-05-29T07:35:19.328Z,27.42
2018-05-29T07:36:19.604Z,27.12
2018-05-29T07:37:19.331Z,27.02
2018-05-29T07:38:19.434Z,26.85
2018-05-29T07:39:19.088Z,26.95
2018-05-29T07:40:19.357Z,26.99
2018-05-29T07:41:19.372Z,27.07
2018-05-29T07:42:19.621Z,27.32
2018-05-29T07:43:19.650Z,27.48
2018-05-29T07:44:19.647Z,27.8
2018-05-29T07:45:19.879Z,28.08
2018-05-29T07:46:19.418Z,28.42
2018-05-29T07:47:19.664Z,28.54
2018-05-29T07:48:19.440Z,28.48
2018-05-29T07:49:19.411Z,28.45
2018-05-29T07:50:19.423Z,28.37
2018-05-29T07:51:19.175Z,28.45
2018-05-29T07:52:19.461Z,28.33
2018-05-29T07:53:19.765Z,27.89
2018-05-29T07:54:19.702Z,27.71
2018-05-29T07:55:19.760Z,27.51
2018-05-29T07:56:19.722Z,27.14
2018-05-29T07:57:19.741Z,26.93
2018-05-29T07:58:19.504Z,26.68
2018-05-29T07:59:19.738Z,26.44
2018-05-29T08:00:19.484Z,26.41
2018-05-29T08:01:19.501Z,26.4
2018-05-29T08:02:19.514Z,26.41
2018-05-29T08:03:19.258Z,26.45
2018-05-29T08:04:19.783Z,26.7
2018-05-29T08:05:19.785Z,26.75
2018-05-29T08:06:19.264Z,26.77
2018-05-29T08:07:19.527Z,26.89
2018-05-29T08:08:19.597Z,27
2018-05-29T08:09:19.797Z,26.96
2018-05-29T08:10:19.542Z,26.88
2018-05-29T08:11:19.813Z,26.7
2018-05-29T08:12:19.809Z,26.45
2018-05-29T08:13:19.585Z,26.34
2018-05-29T08:14:19.573Z,26.19
2018-05-29T08:15:19.576Z,26.1
2018-05-29T08:16:19.866Z,26.25
2018-05-29T08:17:19.840Z,26.34
2018-05-29T08:18:19.855Z,26.44
2018-05-29T08:19:19.592Z,26.44
2018-05-29T08:20:19.860Z,26.44
2018-05-29T08:21:19.870Z,26.45
2018-05-29T08:22:19.873Z,26.56
2018-05-29T08:23:19.896Z,26.58
2018-05-29T08:24:19.374Z,26.43
2018-05-29T08:25:19.901Z,26.41
2018-05-29T08:26:19.915Z,26.21
2018-05-29T08:27:19.901Z,26.09
2018-05-29T08:28:19.665Z,25.93
2018-05-29T08:29:19.915Z,25.93
2018-05-29T08:30:19.667Z,25.87
2018-05-29T08:31:20.005Z,25.84
2018-05-29T08:32:19.933Z,25.91
2018-05-29T08:33:19.682Z,25.99
2018-05-29T08:34:19.413Z,26.05
2018-05-29T08:35:19.687Z,25.91
2018-05-29T08:36:19.692Z,25.93
2018-05-29T08:37:19.949Z,25.83
2018-05-29T08:38:20.020Z,25.8
2018-05-29T08:39:19.988Z,25.87
2018-05-29T08:40:19.450Z,25.83
2018-05-29T08:41:19.713Z,25.84
2018-05-29T08:42:19.742Z,25.99
2018-05-29T08:43:19.736Z,26
2018-05-29T08:44:20.005Z,25.84
2018-05-29T08:45:19.484Z,25.77
2018-05-29T08:46:19.548Z,25.84
2018-05-29T08:47:19.762Z,25.96
2018-05-29T08:48:19.757Z,25.96
2018-05-29T08:49:20.038Z,25.93
2018-05-29T08:50:19.768Z,26.06
2018-05-29T08:51:19.767Z,26.16
2018-05-29T08:52:19.788Z,26.18
2018-05-29T08:53:19.787Z,26.18
2018-05-29T08:54:19.796Z,26.23
2018-05-29T08:55:19.529Z,26.18
2018-05-29T08:56:19.787Z,26.43
2018-05-29T08:57:19.913Z,26.58
2018-05-29T08:58:20.062Z,26.62
2018-05-29T08:59:20.081Z,26.73
2018-05-29T09:00:20.084Z,26.99
2018-05-29T09:01:19.824Z,26.97
2018-05-29T09:02:19.827Z,27.02
2018-05-29T09:03:20.639Z,27.12
2018-05-29T09:04:20.315Z,27.25
2018-05-29T09:05:20.109Z,27.15
2018-05-29T09:06:19.591Z,27.02
2018-05-29T09:07:19.868Z,26.73
2018-05-29T09:08:20.181Z,26.59
2018-05-29T09:09:19.618Z,26.55
2018-05-29T09:10:19.870Z,26.48
2018-05-29T09:11:20.145Z,26.48
2018-05-29T09:12:19.624Z,26.44
2018-05-29T09:13:19.898Z,26.4
2018-05-29T09:14:20.160Z,26.56
2018-05-29T09:15:19.656Z,26.53
2018-05-29T09:16:20.186Z,26.58
2018-05-29T09:17:20.183Z,26.47
2018-05-29T09:18:19.950Z,26.41
2018-05-29T09:19:19.937Z,26.36
2018-05-29T09:20:19.932Z,26.18
2018-05-29T09:21:20.198Z,26.19
2018-05-29T09:22:20.221Z,26.05
2018-05-29T09:23:19.951Z,25.95
2018-05-29T09:24:19.975Z,26.16
2018-05-29T09:25:20.225Z,26.37
2018-05-29T09:26:20.252Z,26.53
2018-05-29T09:27:19.988Z,26.83
2018-05-29T09:28:19.982Z,26.74
2018-05-29T09:29:19.990Z,26.59
2018-05-29T09:30:19.996Z,26.44
2018-05-29T09:31:20.013Z,26.23
2018-05-29T09:32:20.000Z,26.31
2018-05-29T09:33:20.009Z,26.33
2018-05-29T09:34:20.017Z,26.28
2018-05-29T09:35:20.011Z,26.19
2018-05-29T09:36:19.760Z,26.29
2018-05-29T09:37:20.284Z,26.28
2018-05-29T09:38:20.291Z,26.44
2018-05-29T09:39:20.033Z,26.58
2018-05-29T09:40:20.394Z,26.71
2018-05-29T09:41:19.791Z,26.63
2018-05-29T09:42:19.826Z,26.59
2018-05-29T09:43:20.332Z,26.7
2018-05-29T09:44:20.365Z,26.68
2018-05-29T09:45:20.337Z,26.78
2018-05-29T09:46:20.098Z,26.84
2018-05-29T09:47:19.824Z,26.74
2018-05-29T09:48:20.240Z,26.74
2018-05-29T09:50:20.372Z,26.53
2018-05-29T09:51:20.127Z,26.51
2018-05-29T09:52:20.114Z,26.43
2018-05-29T09:53:20.444Z,26.56
2018-05-29T09:54:20.376Z,26.7
2018-05-29T09:55:20.132Z,26.92
2018-05-29T09:56:20.141Z,26.93
2018-05-29T09:57:20.411Z,27
2018-05-29T09:58:20.414Z,26.92
2018-05-29T09:59:20.148Z,27.03
2018-05-29T10:00:19.923Z,27
2018-05-29T10:01:20.197Z,27.12
2018-05-29T10:02:20.444Z,27.18
2018-05-29T10:03:20.438Z,27.21
2018-05-29T10:04:20.443Z,27.2
2018-05-29T10:05:20.458Z,27.2
2018-05-29T10:06:20.482Z,27.27
2018-05-29T10:07:20.701Z,27.36
2018-05-29T10:08:21.022Z,27.32
2018-05-29T10:09:20.222Z,27.2
2018-05-29T10:10:20.233Z,27.14
2018-05-29T10:11:20.392Z,27.12
2018-05-29T10:12:20.013Z,27.29
2018-05-29T10:13:20.089Z,27.02
2018-05-29T10:14:20.012Z,26.9
2018-05-29T10:15:20.530Z,27
2018-05-29T10:16:20.027Z,26.97
2018-05-29T10:17:20.281Z,26.9
2018-05-29T10:18:20.267Z,26.83
2018-05-29T10:19:20.330Z,26.7
2018-05-29T10:20:20.047Z,26.75
2018-05-29T10:21:20.305Z,26.68
2018-05-29T10:22:20.301Z,26.55
2018-05-29T10:23:20.357Z,26.55
2018-05-29T10:53:43.174Z,27.05
2018-05-29T10:54:42.952Z,26.9
2018-05-29T10:55:43.195Z,26.96
2018-05-29T10:56:42.914Z,26.9
2018-05-29T10:57:43.195Z,27.03
2018-05-29T10:58:43.193Z,26.93
2018-05-29T10:59:42.934Z,26.99
2018-05-29T11:00:42.933Z,26.97
2018-05-29T11:01:42.939Z,26.97
2018-05-29T11:02:42.942Z,26.83
2018-05-29T11:03:42.947Z,26.95
2018-05-29T11:04:43.228Z,26.93
2018-05-29T11:05:42.954Z,27.1
2018-05-29T11:06:42.700Z,26.96
2018-05-29T11:07:42.966Z,26.9
2018-05-29T11:08:42.970Z,26.92
2018-05-29T11:09:42.718Z,26.95
2018-05-29T11:10:43.248Z,27.03
2018-05-29T11:11:43.250Z,26.9
2018-05-29T11:12:43.261Z,26.85
2018-05-29T11:13:43.252Z,26.88
2018-05-29T11:14:43.012Z,26.9
2018-05-29T11:15:43.017Z,26.84
2018-05-29T11:16:43.273Z,26.84
2018-05-29T11:17:42.792Z,26.9
2018-05-29T11:18:43.286Z,27.02
2018-05-29T11:19:43.055Z,27.14
2018-05-29T11:20:43.036Z,27.3
2018-05-29T11:21:43.082Z,27.49
2018-05-29T11:22:43.327Z,27.59
2018-05-29T11:23:43.389Z,27.77
2018-05-29T11:24:43.082Z,27.49
2018-05-29T11:25:43.088Z,27.44
2018-05-29T11:26:43.406Z,27.33
2018-05-29T11:27:43.337Z,27.25
2018-05-29T11:28:43.086Z,27.2
2018-05-29T11:29:43.088Z,27.27
2018-05-29T11:30:43.102Z,27
2018-05-29T11:31:43.372Z,26.92
2018-05-29T11:32:43.106Z,26.89
2018-05-29T11:33:43.390Z,26.96
2018-05-29T11:34:43.121Z,26.85
2018-05-29T11:35:43.392Z,26.99
2018-05-29T11:36:43.153Z,27.3
2018-05-29T11:37:43.155Z,27.3
2018-05-29T11:38:43.144Z,27.21
2018-05-29T11:39:43.165Z,27.22
2018-05-29T11:40:43.432Z,27.26
2018-05-29T11:41:42.918Z,27.37
2018-05-29T11:42:43.444Z,27.54
2018-05-29T11:43:43.437Z,27.68
2018-05-29T11:44:43.446Z,27.63
2018-05-29T11:45:43.199Z,27.7
2018-05-29T11:46:43.468Z,27.71
2018-05-29T11:47:43.484Z,27.74
2018-05-29T11:48:43.035Z,27.6
2018-05-29T11:49:43.485Z,27.54
2018-05-29T11:50:43.474Z,27.64
2018-05-29T11:51:43.219Z,27.49
2018-05-29T11:52:43.241Z,27.4
2018-05-29T11:53:43.245Z,27.3
2018-05-29T11:54:43.259Z,27.22
2018-05-29T11:55:43.257Z,27.21
2018-05-29T11:56:43.257Z,27.12
2018-05-29T11:57:43.268Z,27.1
2018-05-29T11:58:43.534Z,27.17
2018-05-29T11:59:43.305Z,27.29
2018-05-29T12:00:43.708Z,27.35
2018-05-29T12:01:43.344Z,27.25
2018-05-29T12:02:43.290Z,27.15
2018-05-29T12:03:43.044Z,27.12
2018-05-29T12:04:43.579Z,27.22
2018-05-29T12:05:43.050Z,27.22
2018-05-29T12:06:43.570Z,27.25
2018-05-29T12:07:43.469Z,27.22
2018-05-29T12:08:43.377Z,27.22
2018-05-29T12:09:43.345Z,27.22
2018-05-29T12:10:43.084Z,27.22
2018-05-29T12:11:43.104Z,27.29
2018-05-29T12:12:43.350Z,27.29
2018-05-29T12:13:43.368Z,27.52
2018-05-29T12:14:43.379Z,27.64
2018-05-29T12:15:43.111Z,27.86
2018-05-29T12:16:43.109Z,28.05
2018-05-29T12:17:43.377Z,28.2
2018-05-29T12:18:43.928Z,28.11
2018-05-29T12:19:43.655Z,28.1
2018-05-29T12:20:43.658Z,28.07
2018-05-29T12:21:43.682Z,27.98
2018-05-29T12:22:43.149Z,27.73
2018-05-29T12:23:43.469Z,27.65
2018-05-29T12:24:43.678Z,27.45
2018-05-29T12:25:43.168Z,27.33
2018-05-29T12:26:43.690Z,27.07
2018-05-29T12:27:43.462Z,27.03
2018-05-29T12:28:43.706Z,26.96
2018-05-29T12:29:43.449Z,26.83
2018-05-29T12:30:43.463Z,26.77
2018-05-29T12:31:43.206Z,26.75
2018-05-29T12:32:43.730Z,26.75
2018-05-29T12:33:43.476Z,26.9
2018-05-29T12:34:43.490Z,26.95
2018-05-29T12:35:43.772Z,27.03
2018-05-29T12:36:43.748Z,26.95
2018-05-29T12:37:43.506Z,27.08
2018-05-29T12:38:43.969Z,26.99
2018-05-29T12:39:43.769Z,26.95
2018-05-29T12:40:43.783Z,27.05
2018-05-29T12:41:43.519Z,27.02
2018-05-29T12:42:43.269Z,27.05
2018-05-29T12:43:43.801Z,27.14
2018-05-29T12:44:43.794Z,27.08
2018-05-29T12:45:43.288Z,27.1
2018-05-29T12:46:43.809Z,27.12
2018-05-29T12:47:43.550Z,26.97
2018-05-29T12:48:43.815Z,27.05
2018-05-29T12:49:43.826Z,26.84
2018-05-29T12:50:43.827Z,26.9
2018-05-29T12:51:43.861Z,26.95
2018-05-29T12:52:43.327Z,26.84
2018-05-29T12:53:43.641Z,26.84
2018-05-29T12:54:43.343Z,26.75
2018-05-29T12:55:43.607Z,26.7
2018-05-29T12:56:43.613Z,26.52
2018-05-29T12:57:43.877Z,26.55
2018-05-29T12:58:43.892Z,26.6
2018-05-29T12:59:43.378Z,26.58
2018-05-29T13:00:43.627Z,26.66
2018-05-29T13:01:43.630Z,26.56
2018-05-29T13:02:43.636Z,26.56
2018-05-29T13:03:43.674Z,26.68
2018-05-29T13:04:43.647Z,26.68
2018-05-29T13:05:43.661Z,26.51
2018-05-29T13:06:43.674Z,26.48
2018-05-29T13:07:43.412Z,26.48
2018-05-29T13:08:43.473Z,26.4
2018-05-29T13:09:43.961Z,26.34
2018-05-29T13:10:43.683Z,26.37
2018-05-29T13:11:43.947Z,26.47
2018-05-29T13:12:43.695Z,26.48
2018-05-29T13:13:44.512Z,26.65
2018-05-29T13:14:43.440Z,26.7
2018-05-29T13:15:43.721Z,26.63
2018-05-29T13:16:44.122Z,26.71
2018-05-29T13:17:43.717Z,26.84
2018-05-29T13:18:43.735Z,26.99
2018-05-29T13:19:43.720Z,26.97
2018-05-29T13:20:43.483Z,26.71
2018-05-29T13:21:43.741Z,26.56
2018-05-29T13:22:44.060Z,26.58
2018-05-29T13:23:43.794Z,26.44
2018-05-29T13:24:43.507Z,26.53
2018-05-29T13:25:43.513Z,26.53
2018-05-29T13:26:43.780Z,26.66
2018-05-29T13:27:44.130Z,26.66
2018-05-29T13:28:44.055Z,26.62
2018-05-29T13:29:44.058Z,26.56
2018-05-29T13:30:44.059Z,26.58
2018-05-29T13:31:44.070Z,26.59
2018-05-29T13:32:44.248Z,26.56
2018-05-29T13:33:43.813Z,26.51
2018-05-29T13:34:43.556Z,26.37
2018-05-29T13:35:44.075Z,26.25